Austinburg, OH (44010)

4:42 PM EDT on September 19, 2014 (GMT -0400)
Harpersfield - Grand River | Change Station
CLOSE
Current Station
Personal Weather Station
Location: Geneva, OH
Elevation: 817 ft
Nearby Weather Stations

Elev 817 ft 41.75 °N, 80.94 °W | Updated 2 minutes ago

Clear
Clear
67.9 °F
Feels Like 67.9 °F
N
0.0
Wind Variable Wind from East

Today
High -- | Low -- °F
--% Chance of Precip.
Yesterday
High -- | Low -- °F
Precip. -- in
7:07 AM 7:25 PM
Waning Crescent, 17% visible
Pressure 30.19 in
Visibility 10.0 miles
Clouds Clear
Dew Point 56 °F
Humidity 66%
Rainfall 0.00 in
Snow Depth Not available.
UV 4 out of 12
Pollen 4.10 out of 12
Ozone Good
PM2.5 Good
Flu Activity Not available.
METAR KHZY 191953Z AUTO 16006KT 10SM CLR 19/08 A3019 RMK AO2 SLP224 T01940083

More Conditions Fewer Conditions

Pressure 30.19 in
Visibility 10.0 miles
Clouds Clear
Dew Point 56 °F
Humidity 66%
Rainfall 0.00 in
Snow Depth Not available.
UV 4 out of 12
Pollen 4.10 out of 12
Ozone Good
PM2.5 Good
Flu Activity Not available.
METAR KHZY 191953Z AUTO 16006KT 10SM CLR 19/08 A3019 RMK AO2 SLP224 T01940083

More Conditions Fewer Conditions

10-Day Weather Forecast

Almanac

Astronomy

Sep. 19, 2014 Rise Set
Actual Time 7:07 AM EDT 7:25 PM EDT
Civil Twilight 6:39 AM EDT 7:53 PM EDT
Nautical Twilight 6:07 AM EDT 8:26 PM EDT
Astronomical Twilight 5:33 AM EDT 8:59 PM EDT
Moon 2:48 AM EDT 4:56 PM EDT
Length of Visible Light 13h 13m
Length of Day
12h 18m
Tomorrow will be 2m 47s shorter.
Waning Crescent, 17% of the Moon is Illuminated
Today
Waning Crescent
Sep 24
New
Oct 1
First Quarter
Oct 8
Full
Oct 15
Last Quarter

Today's Extremes

State Highs State Lows

Community

WunderPhotos

Upload Photos

1,754,695 photos uploaded!

WunderBlogs® & News

By Dr. Jeff Masters
Director of Meteorology, Weather Underground
By Kari Strenfel
Meteorologist, Weather Underground
By Christopher C. Burt
Weather Historian, Weather Underground
September 19, 2014
September 19, 2014
September 19, 2014

Nearby

Air Quality

  Air Quality AQ Index Pollutant
Yesterday Good
PM10
Yesterday Good
OZONE
Current Good
PM2.5
Current Good
OZONE
Friday Moderate
PM2.5
Friday Good
OZONE
Saturday Good
PM2.5
Saturday Good
OZONE
Sunday Good
PM2.5
Sunday Good
OZONE
Monday Good
PM2.5
Monday Good
OZONE

Snow Depth

Station Depth Elevation
No new snow has been reported.

Earthquake Activity

City Distance Mag. Time & Date
No recent earthquake activity has been reported nearby.
Minimum magnitude displayed is 2.5.

Coastal Water Temperatures

Place Temperature
Fairport, OH 66.9 °F
Cleveland, OH 66.9 °F

Nearby Weather Stations